Meath Environmental Platform

Observations for Trim Market St

Time AQI Temp °C Hum % Pres Pa CO μg/m³ H₂S μg/m³ NO μg/m³ NO₂ μg/m³ O₃ μg/m³ SO₂ μg/m³ PM1 μg/m³ PM2.5 μg/m³ PM10 μg/m³
Thursday 9 July 2026
09:29 1 23.1 60 57,563 0 0 0 0.41 9.81 0 0 1.52 2.04
09:28 1 23.1 60 57,555 0 0 0 0 3.75 0 0 1.52 2.04
09:27 1 23.1 60 57,548 0 0 0.21 0 11.83 0 0 2.02 2.73
09:26 1 23.1 60 57,546 0 0 1.08 0 9.85 0 0 1.52 2.04
09:25 1 23 60 57,544 0 0 0 0 6.23 0 0 1.52 2.04
09:24 1 23.1 60 57,537 0 0 0 0 7.27 0 0 1.52 2.04
09:23 1 23.1 60 57,535 0 0 0 0 5.73 0 0 1.52 2.05
09:22 1 23.1 60 57,533 0 0 0 0 12.78 0 0 1.52 2.05
09:21 1 23.1 60 57,537 0 0 0 0 4.43 0 0 1.52 2.05
09:20 1 23.1 60 57,539 0 0 0 0 11.71 0 0 1.52 2.05
09:19 1 23 60 57,549 0.2 0 1.43 1.9 6.03 0 0 1.51 2.05
09:18 1 23.1 60 57,559 0 0 0 0.49 3.87 0 0 1.52 2.05
09:17 1 23 60 57,562 0.07 0 2.26 1.7 1.7 0 2.14 3.51 4.79
09:14 1 23 60 57,558 0 0 2.2 0 0.68 0 0 1.51 2.06
09:13 1 23 60 57,552 0 0 0.02 0 5.22 0 0 1.5 2.06
09:12 1 23 60 57,558 0 0 0 0 7.4 0 0 1.51 2.06
09:11 1 23 60 57,562 0.07 0 0.87 1.99 6.1 0 0 1.51 2.06
09:09 1 22.9 60 57,570 0.09 0 1.14 0 4.72 0 0 1.51 2.06
09:08 1 22.9 61 57,563 0 0 1.28 0 0.48 0 0 1.5 2.07
09:07 1 22.9 61 57,546 0.01 0 0 0 2.6 0 0 1.49 2.08